createdAt,value
2022-08-04T00:00:25.009Z,6.45
2022-08-04T00:03:22.962Z,6.17
2022-08-04T00:06:20.772Z,6.05
2022-08-04T00:08:55.659Z,5.65
2022-08-04T00:11:23.960Z,6.38
2022-08-04T00:14:13.556Z,5.85
2022-08-04T00:16:42.010Z,6.07
2022-08-04T00:19:12.487Z,6.60
2022-08-04T00:21:39.969Z,5.47
2022-08-04T00:24:10.447Z,5.80
2022-08-04T00:26:39.308Z,6.70
2022-08-04T00:29:06.250Z,6.50
2022-08-04T00:31:56.982Z,5.75
2022-08-04T00:34:19.927Z,6.47
2022-08-04T00:36:46.733Z,6.15
2022-08-04T00:39:15.175Z,5.70
2022-08-04T00:42:19.448Z,5.73
2022-08-04T00:45:03.914Z,5.38
2022-08-04T00:47:44.990Z,5.80
2022-08-04T00:50:25.532Z,5.53
2022-08-04T00:53:11.331Z,5.47
2022-08-04T00:56:11.932Z,5.47
2022-08-04T00:59:09.607Z,5.60
2022-08-04T01:02:00.733Z,5.72
2022-08-04T01:04:48.947Z,5.43
2022-08-04T01:07:40.606Z,5.60
2022-08-04T01:10:28.910Z,5.80
2022-08-04T01:13:24.949Z,5.80
2022-08-04T01:16:01.070Z,5.35
2022-08-04T01:18:27.909Z,6.07
2022-08-04T01:21:12.026Z,6.13
2022-08-04T01:23:50.791Z,5.80
2022-08-04T01:26:43.691Z,6.38
2022-08-04T01:29:24.790Z,6.28
2022-08-04T01:32:02.388Z,6.35
2022-08-04T01:34:31.969Z,7.00
2022-08-04T01:37:02.857Z,6.13
2022-08-04T01:39:40.529Z,7.00
2022-08-04T01:42:09.521Z,5.90
2022-08-04T01:44:37.193Z,6.93
2022-08-04T01:47:04.359Z,6.30
2022-08-04T01:49:39.994Z,6.97
2022-08-04T01:52:08.967Z,6.70
2022-08-04T01:54:37.388Z,7.10
2022-08-04T01:57:38.807Z,6.05
2022-08-04T01:59:53.348Z,6.82
2022-08-04T02:02:24.577Z,6.87
2022-08-04T02:04:52.089Z,7.50
2022-08-04T02:07:47.033Z,7.57
2022-08-04T02:10:24.750Z,7.18
2022-08-04T02:13:36.394Z,6.65
2022-08-04T02:16:52.754Z,6.30
2022-08-04T02:19:46.154Z,6.50
2022-08-04T02:22:18.021Z,6.70
2022-08-04T02:24:47.214Z,6.80
2022-08-04T02:27:14.449Z,6.68
2022-08-04T02:29:49.955Z,7.67
2022-08-04T02:32:30.047Z,7.40
2022-08-04T02:35:19.026Z,6.82
2022-08-04T02:37:49.407Z,6.60
2022-08-04T02:40:20.445Z,7.60
2022-08-04T02:42:47.405Z,7.33
2022-08-04T02:45:14.331Z,6.97
2022-08-04T02:48:28.906Z,7.35
2022-08-04T02:50:29.441Z,7.60
2022-08-04T02:52:59.013Z,7.00
2022-08-04T02:55:25.948Z,7.27
2022-08-04T02:57:52.889Z,8.70
2022-08-04T03:00:20.125Z,8.95
2022-08-04T03:03:17.862Z,8.68
2022-08-04T03:06:01.267Z,8.13
2022-08-04T03:08:52.888Z,8.47
2022-08-04T03:11:43.891Z,8.23
2022-08-04T03:14:31.790Z,8.38
2022-08-04T03:17:16.890Z,7.57
2022-08-04T03:19:58.645Z,7.80
2022-08-04T03:22:31.514Z,7.47
2022-08-04T03:25:04.353Z,7.93
2022-08-04T03:27:56.069Z,7.85
2022-08-04T03:31:00.196Z,8.32
2022-08-04T03:33:48.991Z,8.68
2022-08-04T03:36:57.669Z,6.70
2022-08-04T03:39:45.864Z,6.85
2022-08-04T03:42:38.846Z,7.47
2022-08-04T03:45:24.026Z,8.30
2022-08-04T03:48:01.911Z,7.65
2022-08-04T03:50:41.562Z,6.83
2022-08-04T03:53:32.006Z,6.03
2022-08-04T03:56:13.273Z,6.90
2022-08-04T03:59:17.328Z,6.60
2022-08-04T04:02:03.105Z,6.45
2022-08-04T04:05:02.929Z,6.30
2022-08-04T04:07:38.610Z,6.80
2022-08-04T04:10:31.675Z,6.82
2022-08-04T04:13:17.130Z,6.97
2022-08-04T04:16:02.545Z,7.55
2022-08-04T04:18:54.006Z,6.83
2022-08-04T04:21:45.310Z,7.47
2022-08-04T04:24:24.810Z,7.40
2022-08-04T04:27:18.156Z,6.35
2022-08-04T04:30:12.929Z,6.35
2022-08-04T04:33:11.627Z,5.67
2022-08-04T04:36:04.826Z,5.90
2022-08-04T04:39:09.416Z,6.38
2022-08-04T04:42:00.567Z,6.30
2022-08-04T04:44:41.316Z,6.60
2022-08-04T04:47:43.023Z,6.67
2022-08-04T04:50:19.449Z,5.82
2022-08-04T04:52:54.151Z,7.13
2022-08-04T04:55:29.314Z,6.88
2022-08-04T04:58:00.656Z,6.60
2022-08-04T05:00:43.445Z,6.40
2022-08-04T05:03:34.444Z,6.95
2022-08-04T05:06:07.463Z,7.20
2022-08-04T05:08:47.354Z,6.82
2022-08-04T05:11:34.586Z,5.90
2022-08-04T05:14:35.207Z,6.80
2022-08-04T05:17:27.347Z,6.70
2022-08-04T05:20:06.968Z,5.90
2022-08-04T05:22:41.207Z,6.57
2022-08-04T05:25:31.349Z,6.15
2022-08-04T05:28:06.290Z,6.10
2022-08-04T05:30:35.445Z,6.65
2022-08-04T05:33:09.712Z,6.55
2022-08-04T05:36:16.514Z,6.45
2022-08-04T05:38:39.970Z,6.28
2022-08-04T05:41:07.910Z,6.17
2022-08-04T05:43:35.679Z,6.00
2022-08-04T05:46:03.068Z,6.40
2022-08-04T05:48:29.911Z,5.78
2022-08-04T05:51:00.745Z,5.90
2022-08-04T05:53:28.067Z,5.87
2022-08-04T05:55:59.022Z,5.38
2022-08-04T05:58:29.606Z,6.05
2022-08-04T06:00:56.794Z,5.97
2022-08-04T06:03:23.598Z,6.10
2022-08-04T06:05:50.887Z,6.10
2022-08-04T06:08:17.767Z,6.28
2022-08-04T06:10:45.151Z,6.75
2022-08-04T06:13:49.496Z,6.20
2022-08-04T06:15:59.768Z,7.32
2022-08-04T06:18:33.925Z,6.50
2022-08-04T06:21:18.327Z,6.63
2022-08-04T06:23:53.731Z,6.40
2022-08-04T06:26:25.238Z,6.10
2022-08-04T06:28:53.513Z,6.90
2022-08-04T06:32:27.364Z,6.33
2022-08-04T06:34:26.732Z,6.05
2022-08-04T06:36:54.071Z,6.32
2022-08-04T06:39:23.124Z,6.95
2022-08-04T06:42:02.438Z,6.75
2022-08-04T06:44:38.148Z,6.73
2022-08-04T06:47:05.267Z,6.43
2022-08-04T06:49:55.190Z,7.13
2022-08-04T06:52:21.867Z,6.28
2022-08-04T06:54:49.777Z,7.28
2022-08-04T06:57:31.950Z,6.63
2022-08-04T07:00:06.629Z,6.53
2022-08-04T07:02:35.009Z,7.32
2022-08-04T07:05:07.260Z,7.00
2022-08-04T07:07:56.434Z,6.97
2022-08-04T07:10:22.768Z,6.40
2022-08-04T07:12:49.729Z,6.57
2022-08-04T07:15:19.875Z,7.32
2022-08-04T07:17:46.967Z,6.30
2022-08-04T07:20:17.221Z,6.93
2022-08-04T07:23:02.091Z,6.37
2022-08-04T07:26:00.955Z,6.32
2022-08-04T07:28:15.793Z,6.72
2022-08-04T07:30:42.954Z,6.22
2022-08-04T07:33:09.790Z,6.18
2022-08-04T07:36:05.486Z,5.87
2022-08-04T07:38:27.854Z,5.70
2022-08-04T07:40:55.516Z,6.50
2022-08-04T07:43:22.553Z,6.00
2022-08-04T07:45:49.364Z,6.30
2022-08-04T07:48:18.914Z,6.67
2022-08-04T07:50:45.928Z,6.15
2022-08-04T07:53:53.899Z,6.45
2022-08-04T07:55:59.741Z,6.38
2022-08-04T07:58:30.094Z,6.30
2022-08-04T08:00:58.016Z,5.73
2022-08-04T08:03:25.518Z,6.03
2022-08-04T08:06:17.811Z,5.93
2022-08-04T08:08:40.105Z,6.07
2022-08-04T08:11:10.005Z,5.47
2022-08-04T08:13:37.147Z,6.23
2022-08-04T08:16:05.114Z,5.95
2022-08-04T08:18:32.047Z,6.15
2022-08-04T08:20:58.946Z,5.07
2022-08-04T08:23:26.151Z,5.68
2022-08-04T08:25:53.470Z,5.40
2022-08-04T08:28:20.288Z,5.00
2022-08-04T08:30:52.781Z,6.18
2022-08-04T08:33:21.246Z,5.65
2022-08-04T08:35:54.837Z,5.47
2022-08-04T08:38:30.649Z,5.07
2022-08-04T08:41:07.109Z,5.07
2022-08-04T08:44:05.237Z,6.22
2022-08-04T08:46:50.813Z,5.50
2022-08-04T08:50:02.515Z,5.15
2022-08-04T08:52:57.342Z,4.87
2022-08-04T08:55:53.266Z,5.18
2022-08-04T08:58:47.787Z,5.90
2022-08-04T09:01:50.697Z,5.13
2022-08-04T09:04:25.856Z,5.70
2022-08-04T09:07:00.930Z,4.20
2022-08-04T09:09:36.767Z,4.78
2022-08-04T09:12:25.672Z,5.13
2022-08-04T09:14:55.596Z,4.63
2022-08-04T09:17:35.946Z,4.97
2022-08-04T09:20:24.347Z,4.87
2022-08-04T09:23:08.088Z,5.05
2022-08-04T09:25:40.625Z,5.68
2022-08-04T09:28:50.875Z,4.88
2022-08-04T09:31:14.783Z,4.70
2022-08-04T09:34:09.655Z,4.20
2022-08-04T09:36:47.967Z,4.60
2022-08-04T09:39:36.611Z,4.30
2022-08-04T09:42:41.036Z,4.93
2022-08-04T09:45:47.007Z,4.40
2022-08-04T09:48:32.891Z,4.40
2022-08-04T09:50:59.913Z,4.60
2022-08-04T09:53:31.167Z,4.30
2022-08-04T09:56:10.131Z,4.10
2022-08-04T09:59:01.667Z,4.82
2022-08-04T10:01:29.327Z,4.27
2022-08-04T10:04:02.118Z,4.82
2022-08-04T10:07:06.228Z,4.63
2022-08-04T10:10:03.715Z,4.10
2022-08-04T10:12:32.178Z,3.80
2022-08-04T10:15:19.816Z,4.20
2022-08-04T10:17:52.322Z,4.03
2022-08-04T10:20:52.766Z,4.47
2022-08-04T10:23:55.556Z,4.35
2022-08-04T10:26:58.091Z,4.00
2022-08-04T10:29:45.750Z,4.13
2022-08-04T10:32:30.806Z,3.88
2022-08-04T10:35:09.707Z,4.78
2022-08-04T10:37:59.748Z,4.10
2022-08-04T10:40:47.926Z,4.43
2022-08-04T10:43:43.229Z,4.20
2022-08-04T10:46:26.369Z,4.32
2022-08-04T10:49:07.048Z,4.68
2022-08-04T10:51:58.911Z,4.38
2022-08-04T10:54:51.673Z,4.38
2022-08-04T10:57:30.732Z,4.30
2022-08-04T11:00:03.259Z,5.20
2022-08-04T11:02:57.300Z,4.90
2022-08-04T11:05:45.810Z,4.60
2022-08-04T11:08:21.505Z,4.75
2022-08-04T11:12:00.446Z,4.53
2022-08-04T11:14:46.715Z,4.32
2022-08-04T11:17:20.915Z,5.00
2022-08-04T11:20:41.181Z,4.80
2022-08-04T11:23:15.650Z,4.57
2022-08-04T11:25:57.668Z,5.03
2022-08-04T11:28:24.450Z,4.90
2022-08-04T11:30:59.711Z,5.45
2022-08-04T11:33:37.356Z,4.53
2022-08-04T11:36:27.419Z,4.95
2022-08-04T11:39:03.562Z,5.47
2022-08-04T11:41:52.855Z,4.80
2022-08-04T11:44:42.289Z,5.80
2022-08-04T11:47:30.475Z,5.07
2022-08-04T11:50:13.245Z,5.90
2022-08-04T11:52:41.530Z,4.90
2022-08-04T11:55:10.033Z,5.30
2022-08-04T11:57:37.170Z,5.32
2022-08-04T12:00:10.657Z,5.05
2022-08-04T12:02:52.826Z,5.05
2022-08-04T12:05:32.319Z,4.23
2022-08-04T12:08:07.647Z,5.05
2022-08-04T12:11:28.688Z,5.07
2022-08-04T12:14:04.269Z,4.65
2022-08-04T12:16:43.188Z,4.88
2022-08-04T12:19:17.932Z,4.57
2022-08-04T12:21:55.867Z,4.80
2022-08-04T12:24:30.055Z,4.97
2022-08-04T12:26:58.965Z,4.63
2022-08-04T12:29:27.926Z,4.97
2022-08-04T12:32:01.277Z,4.40
2022-08-04T12:34:43.690Z,4.60
2022-08-04T12:37:22.335Z,4.80
2022-08-04T12:40:28.692Z,4.55
2022-08-04T12:42:56.216Z,5.18
2022-08-04T12:45:26.870Z,4.90
2022-08-04T12:47:54.644Z,4.53
2022-08-04T12:50:21.548Z,4.75
2022-08-04T12:53:05.408Z,4.50
2022-08-04T12:55:34.492Z,5.05
2022-08-04T12:58:02.376Z,5.50
2022-08-04T13:00:39.732Z,5.07
2022-08-04T13:03:13.228Z,4.53
2022-08-04T13:05:40.999Z,4.13
2022-08-04T13:08:08.229Z,4.60
2022-08-04T13:10:38.512Z,4.77
2022-08-04T13:13:05.591Z,4.85
2022-08-04T13:15:47.046Z,4.90
2022-08-04T13:18:24.025Z,4.88
2022-08-04T13:20:56.393Z,5.28
2022-08-04T13:23:23.271Z,5.17
2022-08-04T13:26:44.159Z,4.82
2022-08-04T13:28:46.351Z,5.25
2022-08-04T13:31:20.048Z,5.03
2022-08-04T13:33:48.930Z,5.25
2022-08-04T13:36:17.063Z,5.07
2022-08-04T13:38:55.498Z,4.90
2022-08-04T13:41:22.367Z,5.10
2022-08-04T13:44:18.789Z,5.10
2022-08-04T13:47:01.607Z,5.10
2022-08-04T13:49:38.058Z,4.87
2022-08-04T13:52:15.265Z,4.82
2022-08-04T13:54:46.453Z,4.88
2022-08-04T13:57:19.244Z,5.00
2022-08-04T13:59:49.169Z,5.18
2022-08-04T14:02:47.769Z,4.57
2022-08-04T14:05:27.273Z,5.40
2022-08-04T14:08:07.671Z,5.45
2022-08-04T14:10:35.371Z,4.95
2022-08-04T14:13:04.055Z,4.90
2022-08-04T14:16:02.828Z,5.00
2022-08-04T14:18:35.100Z,4.43
2022-08-04T14:21:15.729Z,5.20
2022-08-04T14:23:50.747Z,4.75
2022-08-04T14:26:32.421Z,4.95
2022-08-04T14:29:26.789Z,5.10
2022-08-04T14:32:12.538Z,5.00
2022-08-04T14:34:45.238Z,5.30
2022-08-04T14:37:19.802Z,5.03
2022-08-04T14:40:08.323Z,5.00
2022-08-04T14:42:55.475Z,5.03
2022-08-04T14:45:55.411Z,4.28
2022-08-04T14:48:22.613Z,6.03
2022-08-04T14:50:50.446Z,4.93
2022-08-04T14:53:21.857Z,5.10
2022-08-04T14:55:53.969Z,5.10
2022-08-04T14:58:34.553Z,5.78
2022-08-04T15:01:11.515Z,5.00
2022-08-04T15:03:50.519Z,5.10
2022-08-04T15:06:23.396Z,5.70
2022-08-04T15:08:51.553Z,4.83
2022-08-04T15:11:23.150Z,6.00
2022-08-04T15:13:54.073Z,6.00
2022-08-04T15:16:22.021Z,5.30
2022-08-04T15:18:48.905Z,5.32
2022-08-04T15:21:16.688Z,5.90
2022-08-04T15:23:43.709Z,5.38
2022-08-04T15:26:19.789Z,5.95
2022-08-04T15:28:49.367Z,5.72
2022-08-04T15:32:04.237Z,5.50
2022-08-04T15:34:02.989Z,5.47
2022-08-04T15:36:58.124Z,6.93
2022-08-04T15:39:44.672Z,5.68
2022-08-04T15:42:21.623Z,6.80
2022-08-04T15:44:51.471Z,8.10
2022-08-04T15:47:18.461Z,7.10
2022-08-04T15:49:45.651Z,6.10
2022-08-04T15:52:16.820Z,5.45
2022-08-04T15:54:52.654Z,6.32
2022-08-04T15:57:59.315Z,6.25
2022-08-04T16:00:26.285Z,5.80
2022-08-04T16:02:53.386Z,6.13
2022-08-04T16:05:20.405Z,6.18
2022-08-04T16:08:01.115Z,6.35
2022-08-04T16:10:30.910Z,6.40
2022-08-04T16:12:59.434Z,5.80
2022-08-04T16:15:52.040Z,6.80
2022-08-04T16:18:31.434Z,6.13
2022-08-04T16:20:59.546Z,5.50
2022-08-04T16:23:55.056Z,6.35
2022-08-04T16:26:55.122Z,6.30
2022-08-04T16:29:23.073Z,6.00
2022-08-04T16:32:05.424Z,6.80
2022-08-04T16:34:48.458Z,6.03
2022-08-04T16:37:18.207Z,6.32
2022-08-04T16:39:50.086Z,5.67
2022-08-04T16:42:30.427Z,6.88
2022-08-04T16:45:03.049Z,6.97
2022-08-04T16:47:47.969Z,6.35
2022-08-04T16:50:21.492Z,6.32
2022-08-04T16:52:49.988Z,6.43
2022-08-04T16:55:27.152Z,6.35
2022-08-04T16:57:55.767Z,6.63
2022-08-04T17:00:41.189Z,6.78
2022-08-04T17:03:10.073Z,6.90
2022-08-04T17:05:40.280Z,6.23
2022-08-04T17:10:55.359Z,6.72
2022-08-04T17:14:02.021Z,6.95
2022-08-04T17:16:17.932Z,6.80
2022-08-04T17:18:50.065Z,7.13
2022-08-04T17:21:22.467Z,6.82
2022-08-04T17:24:14.404Z,6.97
2022-08-04T17:26:51.920Z,7.28
2022-08-04T17:29:21.860Z,7.57
2022-08-04T17:31:48.916Z,7.00
2022-08-04T17:34:21.369Z,7.03
2022-08-04T17:36:48.486Z,6.97
2022-08-04T17:39:21.391Z,7.45
2022-08-04T17:41:49.566Z,8.23
2022-08-04T17:44:16.726Z,7.40
2022-08-04T17:46:49.132Z,7.93
2022-08-04T17:49:19.105Z,8.05
2022-08-04T17:52:04.221Z,7.18
2022-08-04T17:54:39.758Z,7.82
2022-08-04T17:57:14.986Z,7.97
2022-08-04T17:59:57.030Z,8.50
2022-08-04T18:02:33.283Z,7.72
2022-08-04T18:05:06.229Z,7.95
2022-08-04T18:08:45.628Z,8.35
2022-08-04T18:10:55.201Z,7.43
2022-08-04T18:13:27.134Z,8.30
2022-08-04T18:16:22.750Z,8.05
2022-08-04T18:19:08.917Z,8.10
2022-08-04T18:21:45.480Z,7.97
2022-08-04T18:24:35.811Z,7.47
2022-08-04T18:27:09.708Z,7.75
2022-08-04T18:29:41.369Z,7.93
2022-08-04T18:32:33.190Z,7.75
2022-08-04T18:35:04.965Z,7.82
2022-08-04T18:38:06.624Z,8.20
2022-08-04T18:40:28.176Z,8.05
2022-08-04T18:43:00.461Z,9.27
2022-08-04T18:45:33.788Z,8.80
2022-08-04T18:48:02.048Z,8.15
2022-08-04T18:51:11.117Z,8.37
2022-08-04T18:53:17.878Z,8.02
2022-08-04T18:55:57.085Z,8.55
2022-08-04T18:58:27.545Z,8.50
2022-08-04T19:00:56.139Z,8.70
2022-08-04T19:03:30.791Z,8.80
2022-08-04T19:05:59.906Z,9.07
2022-08-04T19:08:33.941Z,9.38
2022-08-04T19:11:35.308Z,9.05
2022-08-04T19:13:54.657Z,10.43
2022-08-04T19:16:24.928Z,9.63
2022-08-04T19:18:51.865Z,9.50
2022-08-04T19:21:19.630Z,10.15
2022-08-04T19:24:30.464Z,9.60
2022-08-04T19:26:53.598Z,10.43
2022-08-04T19:29:20.615Z,9.00
2022-08-04T19:31:48.268Z,10.63
2022-08-04T19:34:33.030Z,10.63
2022-08-04T19:37:01.909Z,10.13
2022-08-04T19:39:31.661Z,10.63
2022-08-04T19:42:05.897Z,9.60
2022-08-04T19:44:33.741Z,10.40
2022-08-04T19:47:02.242Z,10.48
2022-08-04T19:50:04.744Z,10.25
2022-08-04T19:52:33.276Z,10.55
2022-08-04T19:55:10.686Z,11.37
2022-08-04T19:57:46.499Z,11.70
2022-08-04T20:00:20.474Z,12.02
2022-08-04T20:03:02.692Z,12.68
2022-08-04T20:05:34.167Z,11.30
2022-08-04T20:08:17.331Z,12.60
2022-08-04T20:10:47.046Z,11.98
2022-08-04T20:13:19.866Z,12.20
2022-08-04T20:15:57.383Z,11.77
2022-08-04T20:18:36.550Z,11.88
2022-08-04T20:21:19.846Z,11.00
2022-08-04T20:23:52.515Z,10.68
2022-08-04T20:26:20.314Z,12.07
2022-08-04T20:28:51.789Z,12.30
2022-08-04T20:31:19.768Z,11.82
2022-08-04T20:33:49.060Z,11.83
2022-08-04T20:36:20.713Z,12.02
2022-08-04T20:38:52.621Z,12.65
2022-08-04T20:41:20.669Z,12.25
2022-08-04T20:43:49.728Z,12.70
2022-08-04T20:46:28.627Z,12.47
2022-08-04T20:48:57.840Z,12.40
2022-08-04T20:51:32.086Z,13.75
2022-08-04T20:54:01.409Z,13.30
2022-08-04T20:56:30.539Z,15.18
2022-08-04T20:58:59.850Z,14.17
2022-08-04T21:01:29.847Z,14.48
2022-08-04T21:04:27.930Z,15.77
2022-08-04T21:06:57.305Z,14.93
2022-08-04T21:09:37.538Z,14.50
2022-08-04T21:12:09.633Z,14.03
2022-08-04T21:14:36.590Z,15.07
2022-08-04T21:17:07.078Z,15.38
2022-08-04T21:19:36.802Z,15.50
2022-08-04T21:22:06.968Z,15.02
2022-08-04T21:24:37.811Z,15.20
2022-08-04T21:27:09.864Z,15.02
2022-08-04T21:29:36.936Z,16.00
2022-08-04T21:32:05.680Z,15.35
2022-08-04T21:34:39.261Z,15.77
2022-08-04T21:37:11.359Z,15.33
2022-08-04T21:39:50.202Z,17.40
2022-08-04T21:42:29.884Z,15.43
2022-08-04T21:44:58.055Z,15.82
2022-08-04T21:47:24.990Z,15.30
2022-08-04T21:49:56.297Z,14.73
2022-08-04T21:52:24.702Z,15.45
2022-08-04T21:57:38.492Z,16.13
2022-08-04T22:00:10.854Z,17.23
2022-08-04T22:02:45.135Z,15.93
2022-08-04T22:05:15.791Z,15.98
2022-08-04T22:10:32.687Z,16.25
2022-08-04T22:13:06.727Z,15.77
2022-08-04T22:16:04.234Z,17.03
2022-08-04T22:18:20.994Z,15.18
2022-08-04T22:20:51.943Z,16.15
2022-08-04T22:23:19.192Z,14.70
2022-08-04T22:25:55.630Z,16.25
2022-08-04T22:28:28.227Z,14.40
2022-08-04T22:30:55.490Z,14.90
2022-08-04T22:33:22.754Z,14.07
2022-08-04T22:35:50.260Z,15.05
2022-08-04T22:38:28.943Z,14.38
2022-08-04T22:41:11.829Z,15.73
2022-08-04T22:43:38.808Z,16.63
2022-08-04T22:46:07.567Z,14.48
2022-08-04T22:48:38.507Z,13.45
2022-08-04T22:51:07.031Z,15.07
2022-08-04T22:53:34.451Z,14.13
2022-08-04T22:56:10.225Z,15.60
2022-08-04T22:58:45.525Z,15.50
2022-08-04T23:01:17.329Z,14.57
2022-08-04T23:03:50.897Z,15.00
2022-08-04T23:06:24.659Z,16.00
2022-08-04T23:08:51.972Z,15.60
2022-08-04T23:11:18.887Z,15.52
2022-08-04T23:13:48.921Z,14.73
2022-08-04T23:16:17.057Z,15.38
2022-08-04T23:18:45.296Z,14.27
2022-08-04T23:21:15.274Z,15.25
2022-08-04T23:23:55.659Z,16.23
2022-08-04T23:26:29.315Z,15.93
2022-08-04T23:28:56.536Z,16.25
2022-08-04T23:31:24.215Z,15.03
2022-08-04T23:33:52.382Z,15.32
2022-08-04T23:36:30.081Z,17.35
2022-08-04T23:39:01.469Z,16.02
2022-08-04T23:41:54.054Z,16.88
2022-08-04T23:44:25.199Z,15.33
2022-08-04T23:47:01.048Z,16.10
2022-08-04T23:49:42.255Z,15.68
2022-08-04T23:52:28.052Z,15.43
2022-08-04T23:55:00.400Z,17.80
2022-08-04T23:58:06.377Z,15.83
